Time;durP1;ratioP1;P1;durP2;ratioP2;P2;SDS_P1;SDS_P2;PMS_P1;PMS_P2;Temp;Humidity;BMP_temperature;BMP_pressure;BME280_temperature;BME280_humidity;BME280_pressure;Samples;Min_cycle;Max_cycle;Signal;HPM_P1;HPM_P2
2023/05/02 00:01:03;;;;;;;;;;;;;;;20.60;58.33;97377.73;618903;229;66610;-59
2023/05/02 00:03:29;;;;;;;;;;;;;;;20.59;57.70;97378.77;619353;228;66609;-59
2023/05/02 00:05:56;;;;;;;;;;;;;;;20.60;58.09;97374.27;620152;228;63724;-59
2023/05/02 00:08:24;;;;;;;;;;;;;;;20.60;58.98;97375.06;619376;228;66344;-59
2023/05/02 00:10:51;;;;;;;;;;;;;;;20.60;58.21;97371.59;621162;228;66400;-59
2023/05/02 00:13:18;;;;;;;;;;;;;;;20.60;58.88;97376.93;615342;229;65012;-59
2023/05/02 00:15:46;;;;;;;;;;;;;;;20.59;59.00;97376.10;616707;229;68785;-59
2023/05/02 00:18:13;;;;;;;;;;;;;;;20.59;59.57;97375.30;619159;228;69109;-59
2023/05/02 00:20:41;;;;;;;;;;;;;;;20.58;57.06;97376.38;619825;228;65051;-59
2023/05/02 00:23:11;;;;;;;;;;;;;;;20.58;58.38;97379.05;619396;229;68764;-59
2023/05/02 00:25:40;;;;;;;;;;;;;;;20.59;59.27;97381.44;619492;229;68722;-58
2023/05/02 00:28:07;;;;;;;;;;;;;;;20.57;58.79;97380.92;620431;228;64910;-59
2023/05/02 00:30:35;;;;;;;;;;;;;;;20.58;58.62;97387.86;619432;228;68786;-59
2023/05/02 00:33:05;;;;;;;;;;;;;;;20.58;59.56;97385.19;619585;229;68986;-58
2023/05/02 00:35:33;;;;;;;;;;;;;;;20.58;59.07;97384.39;619605;229;62663;-58
2023/05/02 00:38:00;;;;;;;;;;;;;;;20.57;59.15;97380.92;620396;228;68499;-58
2023/05/02 00:40:28;;;;;;;;;;;;;;;20.56;59.25;97381.97;618115;228;67408;-58
2023/05/02 00:42:56;;;;;;;;;;;;;;;20.56;58.55;97387.30;617790;229;65072;-58
2023/05/02 00:45:24;;;;;;;;;;;;;;;20.56;57.98;97384.64;619105;229;68979;-59
2023/05/02 00:47:51;;;;;;;;;;;;;;;20.56;59.28;97395.31;619227;229;68786;-58
2023/05/02 00:50:19;;;;;;;;;;;;;;;20.56;59.00;97381.97;620726;228;63940;-59
2023/05/02 00:52:47;;;;;;;;;;;;;;;20.56;58.47;97389.17;619921;228;66595;-59
2023/05/02 00:55:14;;;;;;;;;;;;;;;20.55;57.08;97393.72;618999;229;68598;-59
2023/05/02 00:57:42;;;;;;;;;;;;;;;20.55;59.06;97391.05;619430;229;65017;-59
2023/05/02 01:00:11;;;;;;;;;;;;;;;20.55;57.62;97387.58;619520;229;68976;-59
2023/05/02 01:02:40;;;;;;;;;;;;;;;20.55;59.15;97388.38;617097;229;68739;-59
2023/05/02 01:05:11;;;;;;;;;;;;;;;20.55;57.94;97392.92;618881;228;62665;-59
2023/05/02 01:07:49;;;;;;;;;;;;;;;20.54;57.99;97391.30;619404;229;68658;-59
2023/05/02 01:10:35;;;;;;;;;;;;;;;20.54;58.41;97391.30;619570;229;69438;-59
2023/05/02 01:13:18;;;;;;;;;;;;;;;20.54;58.84;97392.13;619359;227;65104;-58
2023/05/02 01:15:48;;;;;;;;;;;;;;;20.53;58.23;97387.83;611048;230;67714;-58
2023/05/02 01:18:17;;;;;;;;;;;;;;;20.52;57.27;97386.20;616646;229;68840;-59
2023/05/02 01:20:46;;;;;;;;;;;;;;;20.52;58.60;97391.54;619297;229;65010;-59
2023/05/02 01:23:15;;;;;;;;;;;;;;;20.52;57.90;97388.87;620933;228;66509;-59
2023/05/02 01:25:50;;;;;;;;;;;;;;;20.52;58.23;97393.41;619578;229;66187;-59
2023/05/02 01:28:34;;;;;;;;;;;;;;;20.53;59.17;97387.00;618842;228;65058;-59
2023/05/02 01:31:03;;;;;;;;;;;;;;;20.52;58.40;97382.73;619936;228;68774;-59
2023/05/02 01:33:32;;;;;;;;;;;;;;;20.51;58.87;97381.91;619084;229;65690;-59
2023/05/02 01:36:00;;;;;;;;;;;;;;;20.51;58.92;97381.10;619321;229;62782;-59
2023/05/02 01:38:29;;;;;;;;;;;;;;;20.51;58.66;97381.10;620336;228;68609;-59
2023/05/02 01:41:02;;;;;;;;;;;;;;;20.51;58.45;97391.78;619286;228;68574;-59
2023/05/02 01:43:27;;;;;;;;;;;;;;;20.51;58.76;97384.57;620423;228;65054;-59
2023/05/02 01:45:56;;;;;;;;;;;;;;;20.50;58.78;97393.66;618740;229;68606;-59
2023/05/02 01:48:25;;;;;;;;;;;;;;;20.50;57.74;97390.98;619208;229;68569;-59
2023/05/02 01:50:54;;;;;;;;;;;;;;;20.50;58.92;97393.66;621240;228;62980;-59
2023/05/02 01:53:22;;;;;;;;;;;;;;;20.50;58.70;97396.33;615089;229;65732;-59
2023/05/02 01:55:50;;;;;;;;;;;;;;;20.49;58.11;97405.41;616738;229;68501;-59
2023/05/02 01:58:19;;;;;;;;;;;;;;;20.49;59.05;97400.06;619207;228;65046;-58
2023/05/02 02:00:47;;;;;;;;;;;;;;;20.50;59.41;97395.52;620305;228;69227;-59
2023/05/02 02:03:15;;;;;;;;;;;;;;;20.49;58.70;97397.40;619580;228;68520;-59
2023/05/02 02:05:43;;;;;;;;;;;;;;;20.49;59.12;97399.23;620038;228;63617;-59
2023/05/02 02:08:11;;;;;;;;;;;;;;;20.49;58.79;97405.41;618930;229;66434;-59
2023/05/02 02:10:40;;;;;;;;;;;;;;;20.49;58.83;97388.56;620764;228;68707;-59
2023/05/02 02:13:09;;;;;;;;;;;;;;;20.48;58.12;97401.11;619462;229;65884;-59
2023/05/02 02:15:38;;;;;;;;;;;;;;;20.48;57.41;97393.10;620364;228;68932;-59
2023/05/02 02:18:07;;;;;;;;;;;;;;;20.47;58.81;97383.50;619369;228;68500;-59
2023/05/02 02:20:35;;;;;;;;;;;;;;;20.48;58.58;97387.77;619530;228;62663;-59
2023/05/02 02:23:05;;;;;;;;;;;;;;;20.48;59.44;97386.96;619982;228;66626;-59
2023/05/02 02:25:33;;;;;;;;;;;;;;;20.47;58.75;97388.84;619886;228;68639;-59
2023/05/02 02:28:01;;;;;;;;;;;;;;;20.46;58.30;97389.08;620086;228;62974;-59
2023/05/02 02:30:28;;;;;;;;;;;;;;;20.47;59.28;97375.48;619631;229;67172;-59
2023/05/02 02:32:56;;;;;;;;;;;;;;;20.46;57.93;97389.91;619623;229;66655;-59
2023/05/02 02:35:25;;;;;;;;;;;;;;;20.47;57.68;97388.84;619639;229;62740;-59
2023/05/02 02:37:56;;;;;;;;;;;;;;;20.45;57.31;97388.28;620212;228;68600;-59
2023/05/02 02:40:31;;;;;;;;;;;;;;;20.47;59.28;97388.84;619825;228;68398;-59
2023/05/02 02:43:00;;;;;;;;;;;;;;;20.45;58.32;97387.48;619415;228;64963;-59
2023/05/02 02:45:30;;;;;;;;;;;;;;;20.45;58.61;97390.95;619154;229;66281;-59
2023/05/02 02:48:16;;;;;;;;;;;;;;;20.45;59.24;97390.95;620023;228;69221;-59
2023/05/02 02:51:02;;;;;;;;;;;;;;;20.45;58.42;97388.28;619670;229;64890;-59
2023/05/02 02:53:34;;;;;;;;;;;;;;;20.45;58.95;97392.83;619319;229;68563;-59
2023/05/02 02:56:09;;;;;;;;;;;;;;;20.44;58.56;97386.69;612922;227;68834;-60
2023/05/02 02:58:41;;;;;;;;;;;;;;;20.44;58.56;97394.70;620217;227;62751;-60
2023/05/02 03:01:10;;;;;;;;;;;;;;;20.44;58.34;97394.70;619655;228;68685;-59
2023/05/02 03:03:39;;;;;;;;;;;;;;;20.45;58.77;97404.30;619167;229;69301;-58
2023/05/02 03:06:07;;;;;;;;;;;;;;;20.43;58.26;97395.73;620528;228;64909;-58
2023/05/02 03:08:41;;;;;;;;;;;;;;;20.43;58.67;97398.41;619761;228;68554;-58
2023/05/02 03:11:09;;;;;;;;;;;;;;;20.42;58.88;97394.14;619668;229;68816;-58
2023/05/02 03:13:37;;;;;;;;;;;;;;;20.43;58.07;97398.41;612159;230;63994;-58
2023/05/02 03:16:09;;;;;;;;;;;;;;;20.42;57.92;97402.15;618647;229;69516;-58
2023/05/02 03:18:37;;;;;;;;;;;;;;;20.42;60.02;97402.15;615056;229;66615;-59
2023/05/02 03:21:05;;;;;;;;;;;;;;;20.41;58.02;97397.88;619687;229;66328;-58
2023/05/02 03:23:33;;;;;;;;;;;;;;;20.42;59.39;97402.15;619431;229;66570;-58
2023/05/02 03:26:01;;;;;;;;;;;;;;;20.41;58.42;97405.89;618641;227;67358;-59
2023/05/02 03:28:29;;;;;;;;;;;;;;;20.40;58.73;97402.39;620032;227;62935;-58
2023/05/02 03:30:57;;;;;;;;;;;;;;;20.42;58.86;97402.15;619453;229;69337;-59
2023/05/02 03:33:25;;;;;;;;;;;;;;;20.40;58.96;97399.72;619885;228;67369;-59
2023/05/02 03:35:53;;;;;;;;;;;;;;;20.40;58.72;97406.94;617869;229;65042;-59
2023/05/02 03:38:21;;;;;;;;;;;;;;;20.41;58.71;97408.56;618846;226;69105;-58
2023/05/02 03:40:48;;;;;;;;;;;;;;;20.39;57.85;97411.47;620772;228;66161;-59
2023/05/02 03:43:16;;;;;;;;;;;;;;;20.40;58.50;97418.41;619480;229;65184;-58
2023/05/02 03:45:44;;;;;;;;;;;;;;;20.39;58.62;97416.81;620524;228;69424;-58
2023/05/02 03:48:12;;;;;;;;;;;;;;;20.40;58.53;97412.27;619685;228;68641;-58
2023/05/02 03:50:40;;;;;;;;;;;;;;;20.40;58.83;97425.62;621006;228;62901;-59
2023/05/02 03:53:08;;;;;;;;;;;;;;;20.40;59.38;97429.09;619639;228;68834;-58
2023/05/02 03:55:42;;;;;;;;;;;;;;;20.39;57.70;97427.49;619496;228;47962;-59
2023/05/02 03:58:11;;;;;;;;;;;;;;;20.40;58.47;97428.29;620595;228;65265;-59
2023/05/02 04:00:42;;;;;;;;;;;;;;;20.39;58.09;97432.03;619682;228;69499;-59
2023/05/02 04:03:09;;;;;;;;;;;;;;;20.39;58.82;97426.69;620013;228;69543;-59
2023/05/02 04:05:38;;;;;;;;;;;;;;;20.38;57.29;97435.77;620176;227;43598;-59
2023/05/02 04:08:06;;;;;;;;;;;;;;;20.37;57.20;97432.27;619590;229;68836;-59
2023/05/02 04:10:34;;;;;;;;;;;;;;;20.38;58.01;97433.10;619541;227;67090;-59
2023/05/02 04:13:03;;;;;;;;;;;;;;;20.38;58.27;97433.10;619384;228;47046;-58
2023/05/02 04:15:34;;;;;;;;;;;;;;;20.37;58.22;97436.81;621080;228;69536;-58
2023/05/02 04:18:02;;;;;;;;;;;;;;;20.37;57.36;97434.14;619309;228;66615;-59
2023/05/02 04:20:30;;;;;;;;;;;;;;;20.37;58.49;97428.80;620309;228;65710;-58
2023/05/02 04:22:58;;;;;;;;;;;;;;;20.36;57.87;97429.88;619284;228;66513;-58
2023/05/02 04:25:27;;;;;;;;;;;;;;;20.37;58.45;97434.14;621156;228;69100;-59
2023/05/02 04:27:57;;;;;;;;;;;;;;;20.37;58.07;97434.94;619286;229;65057;-59
2023/05/02 04:30:25;;;;;;;;;;;;;;;20.38;58.10;97425.09;620162;228;69596;-58
2023/05/02 04:32:57;;;;;;;;;;;;;;;20.37;58.11;97426.14;619564;228;50919;-59
2023/05/02 04:35:27;;;;;;;;;;;;;;;20.37;59.19;97428.80;620250;228;64724;-59
2023/05/02 04:37:55;;;;;;;;;;;;;;;20.36;58.34;97425.34;620252;226;67383;-59
2023/05/02 04:40:23;;;;;;;;;;;;;;;20.35;58.71;97420.24;620008;227;69152;-58
2023/05/02 04:42:52;;;;;;;;;;;;;;;20.35;58.52;97418.40;619470;228;42430;-59
2023/05/02 04:45:21;;;;;;;;;;;;;;;20.34;58.35;97423.98;614109;229;50365;-58
2023/05/02 04:47:49;;;;;;;;;;;;;;;20.35;57.98;97429.08;616530;229;69591;-58
2023/05/02 04:50:17;;;;;;;;;;;;;;;20.34;58.87;97421.31;620240;228;65216;-59
2023/05/02 04:52:44;;;;;;;;;;;;;;;20.35;59.17;97420.24;619181;229;68808;-59
2023/05/02 04:55:12;;;;;;;;;;;;;;;20.34;58.10;97419.45;619353;229;66656;-59
2023/05/02 04:57:40;;;;;;;;;;;;;;;20.34;59.06;97418.64;619141;229;65945;-59
2023/05/02 05:00:09;;;;;;;;;;;;;;;20.34;58.19;97419.45;620187;228;47275;-59
2023/05/02 05:02:38;;;;;;;;;;;;;;;20.34;59.06;97422.11;619649;229;68859;-59
2023/05/02 05:05:06;;;;;;;;;;;;;;;20.34;58.07;97418.64;619620;229;65077;-59
2023/05/02 05:07:34;;;;;;;;;;;;;;;20.35;58.86;97414.91;619854;228;69543;-61
2023/05/02 05:10:02;;;;;;;;;;;;;;;20.34;57.64;97410.64;620404;228;68883;-59
2023/05/02 05:12:31;;;;;;;;;;;;;;;20.33;58.58;97412.51;619289;228;42064;-58
2023/05/02 05:14:59;;;;;;;;;;;;;;;20.34;58.60;97418.64;620084;228;66238;-58
2023/05/02 05:17:27;;;;;;;;;;;;;;;20.34;58.93;97426.66;619554;229;69542;-59
2023/05/02 05:19:55;;;;;;;;;;;;;;;20.33;59.43;97419.72;619549;229;65007;-58
2023/05/02 05:22:23;;;;;;;;;;;;;;;20.32;57.83;97412.75;619149;229;69470;-58
2023/05/02 05:24:52;;;;;;;;;;;;;;;20.32;58.21;97410.88;619156;226;66550;-58
2023/05/02 05:27:19;;;;;;;;;;;;;;;20.32;58.13;97415.42;619930;228;70496;-58
2023/05/02 05:29:47;;;;;;;;;;;;;;;20.32;58.35;97418.09;619780;229;66319;-58
2023/05/02 05:32:15;;;;;;;;;;;;;;;20.32;57.97;97410.08;619074;227;69075;-60
2023/05/02 05:34:43;;;;;;;;;;;;;;;20.34;57.50;97415.98;612873;230;62704;-59
2023/05/02 05:37:12;;;;;;;;;;;;;;;20.34;58.15;97410.64;619267;229;47390;-59
2023/05/02 05:39:40;;;;;;;;;;;;;;;20.32;58.05;97415.42;619937;228;69331;-58
2023/05/02 05:42:09;;;;;;;;;;;;;;;20.32;58.40;97410.08;619185;228;65968;-59
2023/05/02 05:44:37;;;;;;;;;;;;;;;20.32;57.63;97416.22;619215;229;69667;-58
2023/05/02 05:47:05;;;;;;;;;;;;;;;20.31;57.25;97411.95;621003;228;69149;-58
2023/05/02 05:49:35;;;;;;;;;;;;;;;20.31;57.58;97408.48;619652;229;65686;-58
2023/05/02 05:52:03;;;;;;;;;;;;;;;20.32;58.05;97416.22;619788;228;69508;-58
2023/05/02 05:54:31;;;;;;;;;;;;;;;20.32;56.60;97415.42;619556;228;68790;-57
2023/05/02 05:57:02;;;;;;;;;;;;;;;20.32;57.44;97410.08;619238;229;64885;-58
2023/05/02 05:59:30;;;;;;;;;;;;;;;20.32;57.71;97410.08;619368;229;65947;-59
2023/05/02 06:01:58;;;;;;;;;;;;;;;20.32;58.29;97418.09;620410;227;68801;-59
2023/05/02 06:04:25;;;;;;;;;;;;;;;20.31;58.29;97414.63;619983;228;65017;-60
2023/05/02 06:06:54;;;;;;;;;;;;;;;20.31;59.27;97413.83;619111;229;65858;-59
2023/05/02 06:09:21;;;;;;;;;;;;;;;20.30;58.89;97413.03;619603;229;68407;-59
2023/05/02 06:11:49;;;;;;;;;;;;;;;20.30;58.06;97412.23;620122;228;64985;-59
2023/05/02 06:14:16;;;;;;;;;;;;;;;20.30;56.55;97412.23;620467;228;68549;-59
2023/05/02 06:16:45;;;;;;;;;;;;;;;20.31;54.96;97416.49;619194;228;46885;-59
2023/05/02 06:19:14;;;;;;;;;;;;;;;20.30;54.69;97412.23;619343;229;65058;-59
2023/05/02 06:21:41;;;;;;;;;;;;;;;20.33;56.80;97411.70;619482;229;68586;-59
2023/05/02 06:24:09;;;;;;;;;;;;;;;20.33;52.48;97417.05;621045;228;68306;-59
2023/05/02 06:26:36;;;;;;;;;;;;;;;20.34;57.41;97414.11;619545;228;63709;-59
2023/05/02 06:29:04;;;;;;;;;;;;;;;20.33;55.06;97414.38;619835;229;66737;-59
2023/05/02 06:31:31;;;;;;;;;;;;;;;20.34;58.54;97415.98;619498;228;69002;-59
2023/05/02 06:33:59;;;;;;;;;;;;;;;20.32;53.26;97405.55;619989;229;62892;-59
2023/05/02 06:36:26;;;;;;;;;;;;;;;20.34;51.09;97402.63;619997;228;68856;-60
2023/05/02 06:38:54;;;;;;;;;;;;;;;20.34;52.90;97398.09;618842;229;68670;-59
2023/05/02 06:41:22;;;;;;;;;;;;;;;20.35;53.95;97398.89;616585;228;62917;-60
2023/05/02 06:43:49;;;;;;;;;;;;;;;20.35;57.10;97404.23;620048;228;68675;-60
2023/05/02 06:46:19;;;;;;;;;;;;;;;20.35;57.22;97404.23;619727;229;68567;-60
2023/05/02 06:48:46;;;;;;;;;;;;;;;20.40;51.92;97402.39;614302;228;63114;-59
2023/05/02 06:51:14;;;;;;;;;;;;;;;20.37;52.19;97402.11;620707;228;66470;-59
2023/05/02 06:53:41;;;;;;;;;;;;;;;20.35;53.83;97399.72;619872;229;68820;-60
2023/05/02 06:56:09;;;;;;;;;;;;;;;20.35;56.70;97398.89;619551;228;65087;-60
2023/05/02 06:58:36;;;;;;;;;;;;;;;20.35;56.40;97398.89;620100;228;69025;-60
2023/05/02 07:01:04;;;;;;;;;;;;;;;20.34;54.11;97395.42;619416;228;68658;-60
2023/05/02 07:03:31;;;;;;;;;;;;;;;20.36;56.30;97400.52;619642;228;65068;-60
2023/05/02 07:05:59;;;;;;;;;;;;;;;20.35;57.38;97401.55;620282;228;68711;-60
2023/05/02 07:08:26;;;;;;;;;;;;;;;20.35;57.52;97393.55;619172;228;66734;-60
2023/05/02 07:10:54;;;;;;;;;;;;;;;20.34;57.74;97392.75;619064;229;65201;-60
2023/05/02 07:13:21;;;;;;;;;;;;;;;20.35;58.18;97404.23;614071;230;66608;-60
2023/05/02 07:15:49;;;;;;;;;;;;;;;20.34;52.47;97389.28;616276;229;68685;-60
2023/05/02 07:18:16;;;;;;;;;;;;;;;20.36;53.72;97390.64;620197;228;63070;-60
2023/05/02 07:20:43;;;;;;;;;;;;;;;20.36;56.77;97395.18;619320;229;68783;-60
2023/05/02 07:23:11;;;;;;;;;;;;;;;20.35;57.93;97399.72;619255;229;67567;-60
2023/05/02 07:25:39;;;;;;;;;;;;;;;20.35;56.10;97401.55;619985;228;65077;-60
2023/05/02 07:28:06;;;;;;;;;;;;;;;20.33;56.06;97401.83;619001;229;66708;-60
2023/05/02 07:30:34;;;;;;;;;;;;;;;20.34;58.13;97394.63;619378;226;66770;-59
2023/05/02 07:33:01;;;;;;;;;;;;;;;20.33;58.71;97396.49;620007;228;63004;-59
2023/05/02 07:35:28;;;;;;;;;;;;;;;20.32;53.02;97399.41;619678;228;66568;-60
2023/05/02 07:37:56;;;;;;;;;;;;;;;20.33;57.28;97407.17;619261;228;66285;-59
2023/05/02 07:40:23;;;;;;;;;;;;;;;20.34;55.62;97402.63;618961;229;65065;-59
2023/05/02 07:42:51;;;;;;;;;;;;;;;20.35;58.42;97404.23;619056;229;66537;-59
2023/05/02 07:45:18;;;;;;;;;;;;;;;20.34;57.38;97402.63;620842;228;69144;-60
2023/05/02 07:47:46;;;;;;;;;;;;;;;20.34;56.23;97398.09;619356;229;65044;-60
2023/05/02 07:50:13;;;;;;;;;;;;;;;20.36;56.27;97400.52;620136;228;68775;-60
2023/05/02 07:52:40;;;;;;;;;;;;;;;20.35;52.25;97406.89;619644;229;69933;-61
2023/05/02 07:55:08;;;;;;;;;;;;;;;20.37;52.13;97399.44;619369;228;62967;-59
2023/05/02 07:57:36;;;;;;;;;;;;;;;20.38;50.49;97409.08;620924;228;68831;-60
2023/05/02 08:00:08;;;;;;;;;;;;;;;20.38;53.70;97407.20;619756;229;68704;-60
2023/05/02 08:02:35;;;;;;;;;;;;;;;20.37;55.30;97396.77;619011;228;45191;-59
2023/05/02 08:05:03;;;;;;;;;;;;;;;20.36;55.75;97401.31;619215;227;68573;-60
2023/05/02 08:07:34;;;;;;;;;;;;;;;20.36;58.05;97403.19;618050;224;68670;-60
2023/05/02 08:10:01;;;;;;;;;;;;;;;20.34;57.75;97398.09;619885;228;63831;-60
2023/05/02 08:12:28;;;;;;;;;;;;;;;20.34;55.65;97405.30;619262;229;69193;-61
2023/05/02 08:14:56;;;;;;;;;;;;;;;20.33;56.36;97401.83;617747;229;68575;-60
2023/05/02 08:17:23;;;;;;;;;;;;;;;20.34;56.68;97403.42;616631;229;64959;-60
2023/05/02 08:19:51;;;;;;;;;;;;;;;20.37;56.84;97404.78;619225;229;68791;-59
2023/05/02 08:22:20;;;;;;;;;;;;;;;20.37;57.36;97407.45;619792;227;68664;-60
2023/05/02 08:24:47;;;;;;;;;;;;;;;20.36;58.77;97401.31;619164;229;65024;-59
2023/05/02 08:27:15;;;;;;;;;;;;;;;20.37;58.59;97412.79;617551;228;68828;-59
2023/05/02 08:29:42;;;;;;;;;;;;;;;20.37;58.66;97408.25;617004;227;68751;-60
2023/05/02 08:32:11;;;;;;;;;;;;;;;20.37;57.29;97402.11;615650;227;65162;-59
2023/05/02 08:34:39;;;;;;;;;;;;;;;20.38;57.71;97401.07;613224;230;68902;-60
2023/05/02 08:37:10;;;;;;;;;;;;;;;20.38;56.31;97401.07;612906;230;68698;-61
2023/05/02 08:39:38;;;;;;;;;;;;;;;20.39;55.77;97398.12;613819;229;65179;-60
2023/05/02 08:42:06;;;;;;;;;;;;;;;20.40;57.09;97390.92;612676;230;68807;-60
2023/05/02 08:44:34;;;;;;;;;;;;;;;20.40;54.79;97389.05;612246;230;68696;-60
2023/05/02 08:47:02;;;;;;;;;;;;;;;20.42;54.30;97386.13;611660;230;65029;-60
2023/05/02 08:49:32;;;;;;;;;;;;;;;20.44;55.08;97385.89;612782;231;68796;-60
2023/05/02 08:52:00;;;;;;;;;;;;;;;20.44;55.05;97389.36;612480;231;66385;-60
2023/05/02 08:54:28;;;;;;;;;;;;;;;20.45;54.94;97379.47;612102;231;65075;-60
2023/05/02 08:56:58;;;;;;;;;;;;;;;20.45;55.61;97387.48;612346;231;68836;-60
2023/05/02 08:59:25;;;;;;;;;;;;;;;20.46;54.88;97381.90;616317;229;69025;-61
2023/05/02 09:01:54;;;;;;;;;;;;;;;20.46;56.39;97389.08;613684;230;62930;-60
2023/05/02 09:04:24;;;;;;;;;;;;;;;20.45;56.61;97392.83;612838;229;66590;-60
2023/05/02 09:06:51;;;;;;;;;;;;;;;20.44;56.47;97381.34;611842;230;68693;-59
2023/05/02 09:09:19;;;;;;;;;;;;;;;20.44;55.92;97376.01;615948;229;65052;-59
2023/05/02 09:11:47;;;;;;;;;;;;;;;20.43;57.42;97379.72;611216;230;68840;-60
2023/05/02 09:14:15;;;;;;;;;;;;;;;20.43;56.60;97379.72;613871;230;68547;-61
2023/05/02 09:16:43;;;;;;;;;;;;;;;20.43;58.90;97379.72;615774;230;65320;-61
2023/05/02 09:19:11;;;;;;;;;;;;;;;20.40;53.13;97375.70;612139;230;68436;-63
2023/05/02 09:21:40;;;;;;;;;;;;;;;20.39;56.25;97374.10;616175;229;68470;-64
2023/05/02 09:24:17;;;;;;;;;;;;;;;20.38;56.32;97379.72;612528;230;65077;-60
2023/05/02 09:26:46;;;;;;;;;;;;;;;20.35;56.53;97365.02;610165;230;66815;-59
2023/05/02 09:29:15;;;;;;;;;;;;;;;20.34;56.61;97366.06;612052;230;68664;-59
2023/05/02 09:31:44;;;;;;;;;;;;;;;20.34;58.13;97366.06;613082;230;65078;-59
2023/05/02 09:34:15;;;;;;;;;;;;;;;20.33;57.07;97358.33;612800;230;52063;-60
2023/05/02 09:36:44;;;;;;;;;;;;;;;20.33;57.50;97353.78;612671;230;68709;-60
2023/05/02 09:39:13;;;;;;;;;;;;;;;20.33;56.58;97361.00;614151;229;65017;-59
2023/05/02 09:41:45;;;;;;;;;;;;;;;20.32;56.34;97359.37;613673;230;68838;-59
2023/05/02 09:44:14;;;;;;;;;;;;;;;20.32;58.33;97357.50;613595;230;68686;-59
2023/05/02 09:46:42;;;;;;;;;;;;;;;20.31;55.88;97355.10;612651;229;62971;-59
2023/05/02 09:49:10;;;;;;;;;;;;;;;20.32;56.09;97351.36;611310;230;66589;-59
2023/05/02 09:51:37;;;;;;;;;;;;;;;20.32;55.60;97343.36;613178;229;66400;-60
2023/05/02 09:54:05;;;;;;;;;;;;;;;20.31;56.18;97350.56;612359;230;65194;-59
2023/05/02 09:56:34;;;;;;;;;;;;;;;20.31;56.13;97345.23;611309;230;66681;-59
2023/05/02 09:59:19;;;;;;;;;;;;;;;20.31;56.57;97342.56;609679;230;68673;-58
2023/05/02 10:01:48;;;;;;;;;;;;;;;20.31;55.40;97339.89;610425;230;65341;-59
2023/05/02 10:04:15;;;;;;;;;;;;;;;20.32;56.44;97346.02;611869;230;68841;-59
2023/05/02 10:06:43;;;;;;;;;;;;;;;20.32;56.54;97335.34;616315;229;68127;-59
2023/05/02 10:09:11;;;;;;;;;;;;;;;20.31;57.83;97336.42;612351;230;62788;-58
2023/05/02 10:11:39;;;;;;;;;;;;;;;20.30;57.15;97324.15;616484;228;66317;-59
2023/05/02 10:14:08;;;;;;;;;;;;;;;20.30;56.80;97335.63;613253;230;66613;-59
2023/05/02 10:16:37;;;;;;;;;;;;;;;20.30;56.53;97340.16;612762;229;62912;-60
2023/05/02 10:19:06;;;;;;;;;;;;;;;20.30;56.02;97337.49;614239;229;68682;-59
2023/05/02 10:21:34;;;;;;;;;;;;;;;20.30;56.21;97337.49;613616;230;68250;-60
2023/05/02 10:24:06;;;;;;;;;;;;;;;20.30;57.19;97332.16;613824;230;65020;-60
2023/05/02 10:26:31;;;;;;;;;;;;;;;20.30;56.57;97332.16;612817;229;68533;-60
2023/05/02 10:28:59;;;;;;;;;;;;;;;20.28;57.22;97331.60;611280;230;68688;-59
2023/05/02 10:31:27;;;;;;;;;;;;;;;20.28;57.92;97326.27;611320;230;65115;-59
2023/05/02 10:33:55;;;;;;;;;;;;;;;20.28;57.10;97323.59;611330;231;68346;-59
2023/05/02 10:36:23;;;;;;;;;;;;;;;20.29;57.27;97330.53;614412;229;69406;-61
2023/05/02 10:38:51;;;;;;;;;;;;;;;20.27;56.49;97320.13;613393;229;65048;-60
2023/05/02 10:41:23;;;;;;;;;;;;;;;20.31;49.15;97317.73;603266;233;72456;-59
2023/05/02 10:43:52;;;;;;;;;;;;;;;20.33;54.07;97316.42;607664;230;66847;-60
2023/05/02 10:46:31;;;;;;;;;;;;;;;20.31;54.33;97312.40;612507;230;62973;-60
2023/05/02 10:49:06;;;;;;;;;;;;;;;20.30;54.39;97310.80;612794;230;68645;-60
2023/05/02 10:51:35;;;;;;;;;;;;;;;20.28;56.24;97308.38;613660;230;68627;-60
2023/05/02 10:54:19;;;;;;;;;;;;;;;20.27;56.77;97312.13;611214;230;63061;-59
2023/05/02 10:57:06;;;;;;;;;;;;;;;20.26;55.48;97304.36;610027;229;66730;-59
2023/05/02 10:59:35;;;;;;;;;;;;;;;20.26;56.91;97304.36;615847;229;68444;-60
2023/05/02 11:02:03;;;;;;;;;;;;;;;20.25;57.02;97316.91;612448;230;64914;-60
2023/05/02 11:04:48;;;;;;;;;;;;;;;20.25;56.94;97319.58;613056;229;68812;-59
2023/05/02 11:07:19;;;;;;;;;;;;;;;20.24;56.68;97314.48;611531;230;68694;-59
2023/05/02 11:09:47;;;;;;;;;;;;;;;20.24;55.10;97325.16;611300;230;62920;-60
2023/05/02 11:12:16;;;;;;;;;;;;;;;20.24;55.20;97311.81;611392;230;68830;-60
2023/05/02 11:14:47;;;;;;;;;;;;;;;20.25;55.23;97308.10;608109;230;68666;-59
2023/05/02 11:17:19;;;;;;;;;;;;;;;20.25;54.09;97308.91;611165;230;46339;-60
2023/05/02 11:19:51;;;;;;;;;;;;;;;20.26;54.19;97301.69;611238;227;66453;-59
2023/05/02 11:22:23;;;;;;;;;;;;;;;20.26;55.12;97301.69;611993;230;68294;-60
2023/05/02 11:24:50;;;;;;;;;;;;;;;20.25;55.38;97298.23;610518;230;64954;-59
2023/05/02 11:27:42;;;;;;;;;;;;;;;20.27;55.35;97305.95;614215;229;68805;-59
2023/05/02 11:30:12;;;;;;;;;;;;;;;20.25;56.02;97302.77;613702;230;66497;-59
2023/05/02 11:32:52;;;;;;;;;;;;;;;20.25;56.36;97292.09;615257;230;41815;-58
2023/05/02 11:35:21;;;;;;;;;;;;;;;20.25;56.08;97298.23;611124;230;52631;-58
2023/05/02 11:37:54;;;;;;;;;;;;;;;20.25;55.90;97297.43;613453;230;68721;-58
2023/05/02 11:40:22;;;;;;;;;;;;;;;20.26;56.28;97299.02;612254;230;65150;-59
2023/05/02 11:42:52;;;;;;;;;;;;;;;20.26;56.70;97299.82;611525;231;48477;-59
2023/05/02 11:45:39;;;;;;;;;;;;;;;20.26;56.39;97291.02;613560;230;50231;-59
2023/05/02 11:48:06;;;;;;;;;;;;;;;20.26;57.06;97283.81;612225;230;65151;-59
2023/05/02 11:50:34;;;;;;;;;;;;;;;20.27;57.49;97284.61;612768;229;66302;-60
2023/05/02 11:53:02;;;;;;;;;;;;;;;20.27;55.39;97287.27;615552;229;66826;-59
2023/05/02 11:55:29;;;;;;;;;;;;;;;20.27;56.02;97289.95;616810;229;65142;-60
2023/05/02 11:57:57;;;;;;;;;;;;;;;20.25;56.71;97276.08;616308;229;70505;-60
2023/05/02 12:00:26;;;;;;;;;;;;;;;20.27;54.31;97271.27;612230;230;66751;-61
2023/05/02 12:02:53;;;;;;;;;;;;;;;20.29;53.48;97269.14;611328;230;67892;-60
2023/05/02 12:05:22;;;;;;;;;;;;;;;20.28;55.68;97270.22;614743;229;68921;-60
2023/05/02 12:07:50;;;;;;;;;;;;;;;20.27;57.23;97264.09;613262;230;66666;-60
2023/05/02 12:10:17;;;;;;;;;;;;;;;20.26;55.36;97264.33;611280;231;63026;-60
2023/05/02 12:12:45;;;;;;;;;;;;;;;20.27;53.93;97260.59;613423;229;66630;-60
2023/05/02 12:15:12;;;;;;;;;;;;;;;20.28;55.10;97259.55;611699;230;68773;-59
2023/05/02 12:17:41;;;;;;;;;;;;;;;20.27;55.61;97258.75;612497;230;62560;-60
2023/05/02 12:20:09;;;;;;;;;;;;;;;20.26;55.49;97256.33;615940;230;66559;-60
2023/05/02 12:22:37;;;;;;;;;;;;;;;20.26;55.81;97245.65;615838;230;68704;-59
2023/05/02 12:25:05;;;;;;;;;;;;;;;20.25;55.71;97249.39;615427;230;63066;-60
2023/05/02 12:27:33;;;;;;;;;;;;;;;20.26;51.36;97253.66;611341;230;68800;-60
2023/05/02 12:30:01;;;;;;;;;;;;;;;20.28;54.31;97248.87;611337;230;68681;-60
2023/05/02 12:32:30;;;;;;;;;;;;;;;20.27;52.76;97232.06;611316;230;65103;-61
2023/05/02 12:34:58;;;;;;;;;;;;;;;20.28;55.80;97249.66;609599;230;68574;-60
2023/05/02 12:37:27;;;;;;;;;;;;;;;20.26;54.61;97240.31;616241;229;68563;-60
2023/05/02 12:39:55;;;;;;;;;;;;;;;20.27;56.13;97233.90;614015;230;65148;-60
2023/05/02 12:42:24;;;;;;;;;;;;;;;20.26;56.08;97226.97;613122;229;66680;-61
2023/05/02 12:44:52;;;;;;;;;;;;;;;20.24;55.25;97221.88;611248;230;69017;-60
2023/05/02 12:47:21;;;;;;;;;;;;;;;20.25;54.85;97225.38;611260;230;65061;-59
2023/05/02 12:49:49;;;;;;;;;;;;;;;20.26;55.54;97222.42;611261;230;68858;-60
2023/05/02 12:52:17;;;;;;;;;;;;;;;20.24;55.33;97216.54;613761;230;68740;-60
2023/05/02 12:54:45;;;;;;;;;;;;;;;20.24;56.30;97216.54;612941;230;63111;-60
2023/05/02 12:57:25;;;;;;;;;;;;;;;20.25;52.69;97217.37;616177;229;66610;-60